sensor_id;sensor_type;location;lat;lon;timestamp;temperature;humidity
52107;DHT22;38105;52.968;5.974;2023-07-16T00:01:26;15.80;99.90
52107;DHT22;38105;52.968;5.974;2023-07-16T00:03:51;15.70;99.90
52107;DHT22;38105;52.968;5.974;2023-07-16T00:06:17;15.70;99.90
52107;DHT22;38105;52.968;5.974;2023-07-16T00:08:43;15.70;99.90
52107;DHT22;38105;52.968;5.974;2023-07-16T00:11:08;15.70;99.90
52107;DHT22;38105;52.968;5.974;2023-07-16T00:13:34;15.70;99.90
52107;DHT22;38105;52.968;5.974;2023-07-16T00:15:59;15.70;99.90
52107;DHT22;38105;52.968;5.974;2023-07-16T00:18:25;15.70;99.90
52107;DHT22;38105;52.968;5.974;2023-07-16T00:20:51;15.70;99.90
52107;DHT22;38105;52.968;5.974;2023-07-16T00:23:16;15.70;99.90
52107;DHT22;38105;52.968;5.974;2023-07-16T00:25:42;15.70;99.90
52107;DHT22;38105;52.968;5.974;2023-07-16T00:28:07;15.70;99.90
52107;DHT22;38105;52.968;5.974;2023-07-16T00:30:33;15.70;99.90
52107;DHT22;38105;52.968;5.974;2023-07-16T00:32:58;15.70;99.90
52107;DHT22;38105;52.968;5.974;2023-07-16T00:35:24;15.70;99.90
52107;DHT22;38105;52.968;5.974;2023-07-16T00:37:49;15.70;99.90
52107;DHT22;38105;52.968;5.974;2023-07-16T00:40:15;15.70;99.90
52107;DHT22;38105;52.968;5.974;2023-07-16T00:42:41;15.70;99.90
52107;DHT22;38105;52.968;5.974;2023-07-16T00:45:11;15.70;99.90
52107;DHT22;38105;52.968;5.974;2023-07-16T00:47:39;15.80;99.90
52107;DHT22;38105;52.968;5.974;2023-07-16T00:50:06;15.80;99.90
52107;DHT22;38105;52.968;5.974;2023-07-16T00:52:32;15.80;99.90
52107;DHT22;38105;52.968;5.974;2023-07-16T00:54:58;15.80;99.90
52107;DHT22;38105;52.968;5.974;2023-07-16T00:57:24;15.80;99.90
52107;DHT22;38105;52.968;5.974;2023-07-16T00:59:50;15.80;99.90
52107;DHT22;38105;52.968;5.974;2023-07-16T01:02:16;15.80;99.90
52107;DHT22;38105;52.968;5.974;2023-07-16T01:04:41;15.90;99.90
52107;DHT22;38105;52.968;5.974;2023-07-16T01:07:11;15.90;99.90
52107;DHT22;38105;52.968;5.974;2023-07-16T01:09:41;15.90;99.90
52107;DHT22;38105;52.968;5.974;2023-07-16T01:12:08;15.90;99.90
52107;DHT22;38105;52.968;5.974;2023-07-16T01:14:34;15.90;99.90
52107;DHT22;38105;52.968;5.974;2023-07-16T01:17:07;15.90;99.90
52107;DHT22;38105;52.968;5.974;2023-07-16T01:19:34;15.90;99.90
52107;DHT22;38105;52.968;5.974;2023-07-16T01:22:27;16.00;99.90
52107;DHT22;38105;52.968;5.974;2023-07-16T01:25:10;16.00;99.90
52107;DHT22;38105;52.968;5.974;2023-07-16T01:27:59;16.00;99.90
52107;DHT22;38105;52.968;5.974;2023-07-16T01:30:30;15.90;99.90
52107;DHT22;38105;52.968;5.974;2023-07-16T01:32:56;15.80;99.90
52107;DHT22;38105;52.968;5.974;2023-07-16T01:35:23;15.90;99.90
52107;DHT22;38105;52.968;5.974;2023-07-16T01:37:48;15.90;99.90
52107;DHT22;38105;52.968;5.974;2023-07-16T01:40:14;15.80;99.90
52107;DHT22;38105;52.968;5.974;2023-07-16T01:42:39;15.80;99.90
52107;DHT22;38105;52.968;5.974;2023-07-16T01:45:05;15.80;99.90
52107;DHT22;38105;52.968;5.974;2023-07-16T01:47:35;15.80;99.90
52107;DHT22;38105;52.968;5.974;2023-07-16T01:50:04;15.70;99.90
52107;DHT22;38105;52.968;5.974;2023-07-16T01:52:30;15.60;99.90
52107;DHT22;38105;52.968;5.974;2023-07-16T01:54:56;15.60;99.90
52107;DHT22;38105;52.968;5.974;2023-07-16T01:57:21;15.60;99.90
52107;DHT22;38105;52.968;5.974;2023-07-16T01:59:47;15.50;99.90
52107;DHT22;38105;52.968;5.974;2023-07-16T02:02:12;15.60;99.90
52107;DHT22;38105;52.968;5.974;2023-07-16T02:04:38;15.50;99.90
52107;DHT22;38105;52.968;5.974;2023-07-16T02:07:04;15.50;99.90
52107;DHT22;38105;52.968;5.974;2023-07-16T02:09:29;15.60;99.90
52107;DHT22;38105;52.968;5.974;2023-07-16T02:11:55;15.60;99.90
52107;DHT22;38105;52.968;5.974;2023-07-16T02:14:20;15.60;99.90
52107;DHT22;38105;52.968;5.974;2023-07-16T02:16:46;15.60;99.90
52107;DHT22;38105;52.968;5.974;2023-07-16T02:19:11;15.60;99.90
52107;DHT22;38105;52.968;5.974;2023-07-16T02:21:37;15.70;99.90
52107;DHT22;38105;52.968;5.974;2023-07-16T02:24:02;15.70;99.90
52107;DHT22;38105;52.968;5.974;2023-07-16T02:26:28;15.70;99.90
52107;DHT22;38105;52.968;5.974;2023-07-16T02:28:54;15.70;99.90
52107;DHT22;38105;52.968;5.974;2023-07-16T02:31:20;15.70;99.90
52107;DHT22;38105;52.968;5.974;2023-07-16T02:33:45;15.80;99.90
52107;DHT22;38105;52.968;5.974;2023-07-16T02:36:11;15.80;99.90
52107;DHT22;38105;52.968;5.974;2023-07-16T02:38:36;15.70;99.90
52107;DHT22;38105;52.968;5.974;2023-07-16T02:41:02;15.80;99.90
52107;DHT22;38105;52.968;5.974;2023-07-16T02:43:28;15.70;99.90
52107;DHT22;38105;52.968;5.974;2023-07-16T02:45:54;15.80;99.90
52107;DHT22;38105;52.968;5.974;2023-07-16T02:48:20;15.80;99.90
52107;DHT22;38105;52.968;5.974;2023-07-16T02:50:45;15.80;99.90
52107;DHT22;38105;52.968;5.974;2023-07-16T02:53:11;15.70;99.90
52107;DHT22;38105;52.968;5.974;2023-07-16T02:55:36;15.70;99.90
52107;DHT22;38105;52.968;5.974;2023-07-16T02:58:02;15.70;99.90
52107;DHT22;38105;52.968;5.974;2023-07-16T03:00:32;15.70;99.90
52107;DHT22;38105;52.968;5.974;2023-07-16T03:02:58;15.70;99.90
52107;DHT22;38105;52.968;5.974;2023-07-16T03:05:24;15.70;99.90
52107;DHT22;38105;52.968;5.974;2023-07-16T03:07:50;15.60;99.90
52107;DHT22;38105;52.968;5.974;2023-07-16T03:10:15;15.60;99.90
52107;DHT22;38105;52.968;5.974;2023-07-16T03:12:41;15.70;99.90
52107;DHT22;38105;52.968;5.974;2023-07-16T03:15:07;15.60;99.90
52107;DHT22;38105;52.968;5.974;2023-07-16T03:17:33;15.60;99.90
52107;DHT22;38105;52.968;5.974;2023-07-16T03:19:58;15.70;99.90
52107;DHT22;38105;52.968;5.974;2023-07-16T03:22:24;15.60;99.90
52107;DHT22;38105;52.968;5.974;2023-07-16T03:24:49;15.60;99.90
52107;DHT22;38105;52.968;5.974;2023-07-16T03:27:15;15.60;99.90
52107;DHT22;38105;52.968;5.974;2023-07-16T03:29:40;15.60;99.90
52107;DHT22;38105;52.968;5.974;2023-07-16T03:32:06;15.60;99.90
52107;DHT22;38105;52.968;5.974;2023-07-16T03:34:32;15.60;99.90
52107;DHT22;38105;52.968;5.974;2023-07-16T03:36:57;15.70;99.90
52107;DHT22;38105;52.968;5.974;2023-07-16T03:39:23;15.60;99.90
52107;DHT22;38105;52.968;5.974;2023-07-16T03:41:48;15.60;99.90
52107;DHT22;38105;52.968;5.974;2023-07-16T03:44:14;15.60;99.90
52107;DHT22;38105;52.968;5.974;2023-07-16T03:46:39;15.60;99.90
52107;DHT22;38105;52.968;5.974;2023-07-16T03:49:08;15.60;99.90
52107;DHT22;38105;52.968;5.974;2023-07-16T03:51:34;15.70;99.90
52107;DHT22;38105;52.968;5.974;2023-07-16T03:53:59;15.80;99.90
52107;DHT22;38105;52.968;5.974;2023-07-16T03:56:25;15.80;99.90
52107;DHT22;38105;52.968;5.974;2023-07-16T03:58:51;15.90;99.90
52107;DHT22;38105;52.968;5.974;2023-07-16T04:01:16;15.90;99.90
52107;DHT22;38105;52.968;5.974;2023-07-16T04:03:42;15.90;99.90
52107;DHT22;38105;52.968;5.974;2023-07-16T04:06:08;16.00;99.90
52107;DHT22;38105;52.968;5.974;2023-07-16T04:08:36;16.00;99.90
52107;DHT22;38105;52.968;5.974;2023-07-16T04:11:03;16.00;99.90
52107;DHT22;38105;52.968;5.974;2023-07-16T04:13:29;16.00;99.90
52107;DHT22;38105;52.968;5.974;2023-07-16T04:15:54;16.10;99.90
52107;DHT22;38105;52.968;5.974;2023-07-16T04:18:24;16.10;99.90
52107;DHT22;38105;52.968;5.974;2023-07-16T04:20:49;16.20;99.90
52107;DHT22;38105;52.968;5.974;2023-07-16T04:23:15;16.30;99.90
52107;DHT22;38105;52.968;5.974;2023-07-16T04:25:41;16.40;99.90
52107;DHT22;38105;52.968;5.974;2023-07-16T04:28:07;16.50;99.90
52107;DHT22;38105;52.968;5.974;2023-07-16T04:30:32;16.50;99.90
52107;DHT22;38105;52.968;5.974;2023-07-16T04:32:58;16.50;99.90
52107;DHT22;38105;52.968;5.974;2023-07-16T04:35:23;16.70;99.90
52107;DHT22;38105;52.968;5.974;2023-07-16T04:37:49;16.80;99.90
52107;DHT22;38105;52.968;5.974;2023-07-16T04:40:15;17.10;99.90
52107;DHT22;38105;52.968;5.974;2023-07-16T04:42:40;17.70;99.90
52107;DHT22;38105;52.968;5.974;2023-07-16T04:45:06;17.90;99.90
52107;DHT22;38105;52.968;5.974;2023-07-16T04:47:31;18.10;99.90
52107;DHT22;38105;52.968;5.974;2023-07-16T04:50:00;17.90;99.90
52107;DHT22;38105;52.968;5.974;2023-07-16T04:52:25;17.80;99.90
52107;DHT22;38105;52.968;5.974;2023-07-16T04:54:53;17.80;99.90
52107;DHT22;38105;52.968;5.974;2023-07-16T04:57:19;17.90;99.90
52107;DHT22;38105;52.968;5.974;2023-07-16T04:59:44;17.90;99.90
52107;DHT22;38105;52.968;5.974;2023-07-16T05:02:10;17.60;99.90
52107;DHT22;38105;52.968;5.974;2023-07-16T05:04:35;17.50;99.90
52107;DHT22;38105;52.968;5.974;2023-07-16T05:07:01;17.60;99.90
52107;DHT22;38105;52.968;5.974;2023-07-16T05:09:27;17.80;99.90
52107;DHT22;38105;52.968;5.974;2023-07-16T05:11:53;18.00;99.90
52107;DHT22;38105;52.968;5.974;2023-07-16T05:14:18;18.10;99.90
52107;DHT22;38105;52.968;5.974;2023-07-16T05:16:44;18.00;99.90
52107;DHT22;38105;52.968;5.974;2023-07-16T05:19:10;17.90;99.90
52107;DHT22;38105;52.968;5.974;2023-07-16T05:21:35;17.70;99.90
52107;DHT22;38105;52.968;5.974;2023-07-16T05:24:01;17.80;99.90
52107;DHT22;38105;52.968;5.974;2023-07-16T05:26:26;18.80;99.90
52107;DHT22;38105;52.968;5.974;2023-07-16T05:28:52;19.80;99.90
52107;DHT22;38105;52.968;5.974;2023-07-16T05:31:17;20.40;99.90
52107;DHT22;38105;52.968;5.974;2023-07-16T05:33:43;20.50;99.90
52107;DHT22;38105;52.968;5.974;2023-07-16T05:36:08;20.40;99.90
52107;DHT22;38105;52.968;5.974;2023-07-16T05:38:34;19.90;99.90
52107;DHT22;38105;52.968;5.974;2023-07-16T05:41:01;19.50;99.90
52107;DHT22;38105;52.968;5.974;2023-07-16T05:43:27;19.10;99.90
52107;DHT22;38105;52.968;5.974;2023-07-16T05:45:52;18.80;99.90
52107;DHT22;38105;52.968;5.974;2023-07-16T05:48:18;18.60;99.90
52107;DHT22;38105;52.968;5.974;2023-07-16T05:50:44;18.40;99.90
52107;DHT22;38105;52.968;5.974;2023-07-16T05:53:12;18.40;99.90
52107;DHT22;38105;52.968;5.974;2023-07-16T05:55:39;18.40;99.90
52107;DHT22;38105;52.968;5.974;2023-07-16T05:58:05;18.40;99.90
52107;DHT22;38105;52.968;5.974;2023-07-16T06:00:30;18.50;99.90
52107;DHT22;38105;52.968;5.974;2023-07-16T06:02:56;18.60;99.90
52107;DHT22;38105;52.968;5.974;2023-07-16T06:05:24;18.60;99.90
52107;DHT22;38105;52.968;5.974;2023-07-16T06:07:51;18.60;99.90
52107;DHT22;38105;52.968;5.974;2023-07-16T06:10:17;18.50;99.90
52107;DHT22;38105;52.968;5.974;2023-07-16T06:12:42;18.50;99.90
52107;DHT22;38105;52.968;5.974;2023-07-16T06:15:08;18.80;99.90
52107;DHT22;38105;52.968;5.974;2023-07-16T06:17:34;19.10;99.90
52107;DHT22;38105;52.968;5.974;2023-07-16T06:19:59;19.10;99.90
52107;DHT22;38105;52.968;5.974;2023-07-16T06:22:25;19.20;99.90
52107;DHT22;38105;52.968;5.974;2023-07-16T06:24:51;19.10;99.90
52107;DHT22;38105;52.968;5.974;2023-07-16T06:27:16;18.90;99.90
52107;DHT22;38105;52.968;5.974;2023-07-16T06:29:44;18.80;99.90
52107;DHT22;38105;52.968;5.974;2023-07-16T06:32:10;18.70;99.90
52107;DHT22;38105;52.968;5.974;2023-07-16T06:34:35;18.80;99.90
52107;DHT22;38105;52.968;5.974;2023-07-16T06:37:01;18.80;99.90
52107;DHT22;38105;52.968;5.974;2023-07-16T06:39:27;18.90;99.90
52107;DHT22;38105;52.968;5.974;2023-07-16T06:41:52;19.10;99.90
52107;DHT22;38105;52.968;5.974;2023-07-16T06:44:18;19.00;99.90
52107;DHT22;38105;52.968;5.974;2023-07-16T06:46:43;19.50;99.90
52107;DHT22;38105;52.968;5.974;2023-07-16T06:49:09;19.70;99.90
52107;DHT22;38105;52.968;5.974;2023-07-16T06:51:34;19.60;99.90
52107;DHT22;38105;52.968;5.974;2023-07-16T06:54:00;19.40;99.90
52107;DHT22;38105;52.968;5.974;2023-07-16T06:56:25;19.30;99.90
52107;DHT22;38105;52.968;5.974;2023-07-16T06:58:51;18.90;99.90
52107;DHT22;38105;52.968;5.974;2023-07-16T07:01:17;18.60;99.90
52107;DHT22;38105;52.968;5.974;2023-07-16T07:03:42;18.40;99.90
52107;DHT22;38105;52.968;5.974;2023-07-16T07:06:08;18.20;99.90
52107;DHT22;38105;52.968;5.974;2023-07-16T07:08:36;18.20;99.90
52107;DHT22;38105;52.968;5.974;2023-07-16T07:11:03;18.60;99.90
52107;DHT22;38105;52.968;5.974;2023-07-16T07:13:29;18.80;99.90
52107;DHT22;38105;52.968;5.974;2023-07-16T07:15:55;18.70;99.90
52107;DHT22;38105;52.968;5.974;2023-07-16T07:18:21;18.70;99.90
52107;DHT22;38105;52.968;5.974;2023-07-16T07:20:46;18.60;99.90
52107;DHT22;38105;52.968;5.974;2023-07-16T07:23:15;18.50;99.90
52107;DHT22;38105;52.968;5.974;2023-07-16T07:25:49;18.60;99.90
52107;DHT22;38105;52.968;5.974;2023-07-16T07:28:15;18.50;99.90
52107;DHT22;38105;52.968;5.974;2023-07-16T07:30:41;18.50;99.90
52107;DHT22;38105;52.968;5.974;2023-07-16T07:33:06;18.50;99.90
52107;DHT22;38105;52.968;5.974;2023-07-16T07:35:32;18.60;99.90
52107;DHT22;38105;52.968;5.974;2023-07-16T07:37:58;18.70;99.90
52107;DHT22;38105;52.968;5.974;2023-07-16T07:40:23;18.70;99.90
52107;DHT22;38105;52.968;5.974;2023-07-16T07:42:49;18.70;99.90
52107;DHT22;38105;52.968;5.974;2023-07-16T07:45:15;18.70;99.90
52107;DHT22;38105;52.968;5.974;2023-07-16T07:47:41;18.70;99.90
52107;DHT22;38105;52.968;5.974;2023-07-16T07:50:07;18.50;99.90
52107;DHT22;38105;52.968;5.974;2023-07-16T07:52:32;18.30;99.90
52107;DHT22;38105;52.968;5.974;2023-07-16T07:55:04;18.20;99.90
52107;DHT22;38105;52.968;5.974;2023-07-16T07:57:33;17.90;99.90
52107;DHT22;38105;52.968;5.974;2023-07-16T08:00:01;17.90;99.90
52107;DHT22;38105;52.968;5.974;2023-07-16T08:02:27;17.80;99.90
52107;DHT22;38105;52.968;5.974;2023-07-16T08:04:54;17.70;99.90
52107;DHT22;38105;52.968;5.974;2023-07-16T08:07:20;17.60;99.90
52107;DHT22;38105;52.968;5.974;2023-07-16T08:09:46;17.70;99.90
52107;DHT22;38105;52.968;5.974;2023-07-16T08:12:13;17.70;99.90
52107;DHT22;38105;52.968;5.974;2023-07-16T08:14:39;18.40;99.90
52107;DHT22;38105;52.968;5.974;2023-07-16T08:17:04;19.30;99.90
52107;DHT22;38105;52.968;5.974;2023-07-16T08:19:30;19.80;99.90
52107;DHT22;38105;52.968;5.974;2023-07-16T08:21:56;20.10;99.90
52107;DHT22;38105;52.968;5.974;2023-07-16T08:24:21;20.50;99.90
52107;DHT22;38105;52.968;5.974;2023-07-16T08:26:47;20.80;99.90
52107;DHT22;38105;52.968;5.974;2023-07-16T08:29:13;20.90;99.90
52107;DHT22;38105;52.968;5.974;2023-07-16T08:31:41;21.10;99.90
52107;DHT22;38105;52.968;5.974;2023-07-16T08:34:07;21.40;99.90
52107;DHT22;38105;52.968;5.974;2023-07-16T08:36:33;21.30;99.90
52107;DHT22;38105;52.968;5.974;2023-07-16T08:38:59;21.30;99.90
52107;DHT22;38105;52.968;5.974;2023-07-16T08:41:25;21.40;99.90
52107;DHT22;38105;52.968;5.974;2023-07-16T08:43:51;21.90;99.90
52107;DHT22;38105;52.968;5.974;2023-07-16T08:46:18;21.70;99.90
52107;DHT22;38105;52.968;5.974;2023-07-16T08:48:45;21.30;99.90
52107;DHT22;38105;52.968;5.974;2023-07-16T08:51:14;20.80;99.90
52107;DHT22;38105;52.968;5.974;2023-07-16T08:53:40;20.40;99.90
52107;DHT22;38105;52.968;5.974;2023-07-16T08:56:05;20.10;99.90
52107;DHT22;38105;52.968;5.974;2023-07-16T08:58:32;19.90;99.90
52107;DHT22;38105;52.968;5.974;2023-07-16T09:00:59;19.90;99.90
52107;DHT22;38105;52.968;5.974;2023-07-16T09:03:26;20.10;99.90
52107;DHT22;38105;52.968;5.974;2023-07-16T09:05:53;20.20;99.90
52107;DHT22;38105;52.968;5.974;2023-07-16T09:08:20;19.90;99.90
52107;DHT22;38105;52.968;5.974;2023-07-16T09:10:54;20.20;99.90
52107;DHT22;38105;52.968;5.974;2023-07-16T09:13:20;20.70;99.90
52107;DHT22;38105;52.968;5.974;2023-07-16T09:15:51;21.00;99.90
52107;DHT22;38105;52.968;5.974;2023-07-16T09:18:25;20.80;99.90
52107;DHT22;38105;52.968;5.974;2023-07-16T09:20:58;20.80;99.90
52107;DHT22;38105;52.968;5.974;2023-07-16T09:23:27;21.10;99.90
52107;DHT22;38105;52.968;5.974;2023-07-16T09:25:54;21.70;99.90
52107;DHT22;38105;52.968;5.974;2023-07-16T09:28:20;22.70;99.90
52107;DHT22;38105;52.968;5.974;2023-07-16T09:30:46;23.00;99.90
52107;DHT22;38105;52.968;5.974;2023-07-16T09:33:14;22.70;99.90
52107;DHT22;38105;52.968;5.974;2023-07-16T09:35:40;22.90;99.90
52107;DHT22;38105;52.968;5.974;2023-07-16T09:38:08;22.90;99.90
52107;DHT22;38105;52.968;5.974;2023-07-16T09:40:37;23.00;99.90
52107;DHT22;38105;52.968;5.974;2023-07-16T09:43:03;23.00;99.90
52107;DHT22;38105;52.968;5.974;2023-07-16T09:45:30;22.70;99.90
52107;DHT22;38105;52.968;5.974;2023-07-16T09:47:56;22.40;99.90
52107;DHT22;38105;52.968;5.974;2023-07-16T09:50:24;22.20;99.90
52107;DHT22;38105;52.968;5.974;2023-07-16T09:52:52;22.50;99.90
52107;DHT22;38105;52.968;5.974;2023-07-16T09:55:18;23.10;99.90
52107;DHT22;38105;52.968;5.974;2023-07-16T09:57:46;22.80;99.90
52107;DHT22;38105;52.968;5.974;2023-07-16T10:00:13;22.40;99.90
52107;DHT22;38105;52.968;5.974;2023-07-16T10:02:41;21.90;99.90
52107;DHT22;38105;52.968;5.974;2023-07-16T10:05:19;21.30;99.90
52107;DHT22;38105;52.968;5.974;2023-07-16T10:07:53;20.80;99.90
52107;DHT22;38105;52.968;5.974;2023-07-16T10:10:19;20.60;99.90
52107;DHT22;38105;52.968;5.974;2023-07-16T10:12:56;20.60;99.90
52107;DHT22;38105;52.968;5.974;2023-07-16T10:15:26;21.70;99.90
52107;DHT22;38105;52.968;5.974;2023-07-16T10:17:52;22.00;99.90
52107;DHT22;38105;52.968;5.974;2023-07-16T10:20:32;21.90;99.90
52107;DHT22;38105;52.968;5.974;2023-07-16T10:22:58;21.40;99.90
52107;DHT22;38105;52.968;5.974;2023-07-16T10:25:26;21.20;99.90
52107;DHT22;38105;52.968;5.974;2023-07-16T10:27:53;21.30;99.90
52107;DHT22;38105;52.968;5.974;2023-07-16T10:30:19;21.40;99.90
52107;DHT22;38105;52.968;5.974;2023-07-16T10:32:45;21.40;99.90
52107;DHT22;38105;52.968;5.974;2023-07-16T10:35:12;21.50;99.90
52107;DHT22;38105;52.968;5.974;2023-07-16T10:37:39;21.60;99.90
52107;DHT22;38105;52.968;5.974;2023-07-16T10:40:09;22.00;99.90
52107;DHT22;38105;52.968;5.974;2023-07-16T10:42:35;21.90;99.90
52107;DHT22;38105;52.968;5.974;2023-07-16T10:45:04;22.10;99.90
52107;DHT22;38105;52.968;5.974;2023-07-16T10:47:35;22.40;99.90
52107;DHT22;38105;52.968;5.974;2023-07-16T10:50:04;22.30;99.90
52107;DHT22;38105;52.968;5.974;2023-07-16T10:52:29;21.80;99.90
52107;DHT22;38105;52.968;5.974;2023-07-16T10:54:55;21.60;99.90
52107;DHT22;38105;52.968;5.974;2023-07-16T10:57:26;21.20;99.90
52107;DHT22;38105;52.968;5.974;2023-07-16T10:59:57;20.80;99.90
52107;DHT22;38105;52.968;5.974;2023-07-16T11:02:24;20.80;99.90
52107;DHT22;38105;52.968;5.974;2023-07-16T11:04:50;21.20;99.90
52107;DHT22;38105;52.968;5.974;2023-07-16T11:07:19;21.40;99.90
52107;DHT22;38105;52.968;5.974;2023-07-16T11:09:47;21.50;99.90
52107;DHT22;38105;52.968;5.974;2023-07-16T11:12:16;21.60;99.90
52107;DHT22;38105;52.968;5.974;2023-07-16T11:14:49;21.50;99.90
52107;DHT22;38105;52.968;5.974;2023-07-16T11:17:16;21.20;99.90
52107;DHT22;38105;52.968;5.974;2023-07-16T11:19:45;21.00;99.90
52107;DHT22;38105;52.968;5.974;2023-07-16T11:22:11;20.70;99.90
52107;DHT22;38105;52.968;5.974;2023-07-16T11:24:43;20.60;99.90
52107;DHT22;38105;52.968;5.974;2023-07-16T11:27:15;20.50;99.90
52107;DHT22;38105;52.968;5.974;2023-07-16T11:32:37;20.30;99.90
52107;DHT22;38105;52.968;5.974;2023-07-16T11:35:05;20.20;99.90
52107;DHT22;38105;52.968;5.974;2023-07-16T11:37:33;20.20;99.90
52107;DHT22;38105;52.968;5.974;2023-07-16T11:40:04;20.10;99.90
52107;DHT22;38105;52.968;5.974;2023-07-16T11:42:38;20.20;99.90
52107;DHT22;38105;52.968;5.974;2023-07-16T11:45:05;20.30;99.90
52107;DHT22;38105;52.968;5.974;2023-07-16T11:47:31;20.50;99.90
52107;DHT22;38105;52.968;5.974;2023-07-16T11:49:57;20.60;99.90
52107;DHT22;38105;52.968;5.974;2023-07-16T11:52:28;20.70;99.90
52107;DHT22;38105;52.968;5.974;2023-07-16T11:54:56;20.60;99.90
52107;DHT22;38105;52.968;5.974;2023-07-16T11:57:23;20.70;99.90
52107;DHT22;38105;52.968;5.974;2023-07-16T11:59:48;21.00;99.90
52107;DHT22;38105;52.968;5.974;2023-07-16T12:02:16;21.00;99.90
52107;DHT22;38105;52.968;5.974;2023-07-16T12:04:42;21.10;99.90
52107;DHT22;38105;52.968;5.974;2023-07-16T12:07:08;21.20;99.90
52107;DHT22;38105;52.968;5.974;2023-07-16T12:09:33;21.50;99.90
52107;DHT22;38105;52.968;5.974;2023-07-16T12:12:00;21.50;99.90
52107;DHT22;38105;52.968;5.974;2023-07-16T12:14:26;21.70;99.90
52107;DHT22;38105;52.968;5.974;2023-07-16T12:16:51;21.90;99.90
52107;DHT22;38105;52.968;5.974;2023-07-16T12:19:17;21.90;99.90
52107;DHT22;38105;52.968;5.974;2023-07-16T12:21:43;21.90;99.90
52107;DHT22;38105;52.968;5.974;2023-07-16T12:24:09;21.90;99.90
52107;DHT22;38105;52.968;5.974;2023-07-16T12:26:35;21.70;99.90
52107;DHT22;38105;52.968;5.974;2023-07-16T12:29:01;21.60;99.90
52107;DHT22;38105;52.968;5.974;2023-07-16T12:31:31;21.40;99.90
52107;DHT22;38105;52.968;5.974;2023-07-16T12:33:57;21.20;99.90
52107;DHT22;38105;52.968;5.974;2023-07-16T12:36:24;21.20;99.90
52107;DHT22;38105;52.968;5.974;2023-07-16T12:38:49;21.20;99.90
52107;DHT22;38105;52.968;5.974;2023-07-16T12:41:15;21.20;99.90
52107;DHT22;38105;52.968;5.974;2023-07-16T12:43:42;21.20;99.90
52107;DHT22;38105;52.968;5.974;2023-07-16T12:46:07;21.30;99.90
52107;DHT22;38105;52.968;5.974;2023-07-16T12:48:33;21.50;99.90
52107;DHT22;38105;52.968;5.974;2023-07-16T12:50:59;21.70;99.90
52107;DHT22;38105;52.968;5.974;2023-07-16T12:53:25;21.90;99.90
52107;DHT22;38105;52.968;5.974;2023-07-16T12:55:51;22.30;99.90
52107;DHT22;38105;52.968;5.974;2023-07-16T12:58:17;22.50;99.90
52107;DHT22;38105;52.968;5.974;2023-07-16T13:00:43;22.60;99.90
52107;DHT22;38105;52.968;5.974;2023-07-16T13:03:09;22.80;99.90
52107;DHT22;38105;52.968;5.974;2023-07-16T13:05:40;23.00;99.90
52107;DHT22;38105;52.968;5.974;2023-07-16T13:08:06;23.10;99.90
52107;DHT22;38105;52.968;5.974;2023-07-16T13:10:32;23.00;99.90
52107;DHT22;38105;52.968;5.974;2023-07-16T13:12:58;23.00;99.90
52107;DHT22;38105;52.968;5.974;2023-07-16T13:15:23;23.00;99.90
52107;DHT22;38105;52.968;5.974;2023-07-16T13:17:49;23.10;99.90
52107;DHT22;38105;52.968;5.974;2023-07-16T13:20:15;23.30;99.90
52107;DHT22;38105;52.968;5.974;2023-07-16T13:22:44;23.20;99.90
52107;DHT22;38105;52.968;5.974;2023-07-16T13:25:12;23.00;99.90
52107;DHT22;38105;52.968;5.974;2023-07-16T13:27:38;22.90;99.90
52107;DHT22;38105;52.968;5.974;2023-07-16T13:30:05;23.00;99.90
52107;DHT22;38105;52.968;5.974;2023-07-16T13:32:31;23.00;99.90
52107;DHT22;38105;52.968;5.974;2023-07-16T13:34:57;23.00;99.90
52107;DHT22;38105;52.968;5.974;2023-07-16T13:37:22;23.00;99.90
52107;DHT22;38105;52.968;5.974;2023-07-16T13:39:48;22.90;99.90
52107;DHT22;38105;52.968;5.974;2023-07-16T13:42:14;23.00;99.90
52107;DHT22;38105;52.968;5.974;2023-07-16T13:44:39;22.80;99.90
52107;DHT22;38105;52.968;5.974;2023-07-16T13:47:05;22.70;99.90
52107;DHT22;38105;52.968;5.974;2023-07-16T13:49:31;22.70;99.90
52107;DHT22;38105;52.968;5.974;2023-07-16T13:51:56;22.80;99.90
52107;DHT22;38105;52.968;5.974;2023-07-16T13:54:22;23.00;99.90
52107;DHT22;38105;52.968;5.974;2023-07-16T13:56:48;23.00;99.90
52107;DHT22;38105;52.968;5.974;2023-07-16T13:59:14;22.90;99.90
52107;DHT22;38105;52.968;5.974;2023-07-16T14:01:40;22.90;99.90
52107;DHT22;38105;52.968;5.974;2023-07-16T14:04:06;22.90;99.90
52107;DHT22;38105;52.968;5.974;2023-07-16T14:06:32;22.80;99.90
52107;DHT22;38105;52.968;5.974;2023-07-16T14:08:59;22.80;99.90
52107;DHT22;38105;52.968;5.974;2023-07-16T14:11:25;22.70;99.90
52107;DHT22;38105;52.968;5.974;2023-07-16T14:13:50;22.50;99.90
52107;DHT22;38105;52.968;5.974;2023-07-16T14:16:20;22.30;99.90
52107;DHT22;38105;52.968;5.974;2023-07-16T14:18:50;22.20;99.90
52107;DHT22;38105;52.968;5.974;2023-07-16T14:21:17;22.20;99.90
52107;DHT22;38105;52.968;5.974;2023-07-16T14:23:43;22.20;99.90
52107;DHT22;38105;52.968;5.974;2023-07-16T14:26:08;22.10;99.90
52107;DHT22;38105;52.968;5.974;2023-07-16T14:28:34;22.00;99.90
52107;DHT22;38105;52.968;5.974;2023-07-16T14:31:00;22.00;99.90
52107;DHT22;38105;52.968;5.974;2023-07-16T14:33:25;22.00;99.90
52107;DHT22;38105;52.968;5.974;2023-07-16T14:35:51;22.10;99.90
52107;DHT22;38105;52.968;5.974;2023-07-16T14:38:16;22.20;99.90
52107;DHT22;38105;52.968;5.974;2023-07-16T14:40:42;22.30;99.90
52107;DHT22;38105;52.968;5.974;2023-07-16T14:43:08;22.30;99.90
52107;DHT22;38105;52.968;5.974;2023-07-16T14:45:34;22.30;99.90
52107;DHT22;38105;52.968;5.974;2023-07-16T14:48:00;22.20;99.90
52107;DHT22;38105;52.968;5.974;2023-07-16T14:50:26;22.20;99.90
52107;DHT22;38105;52.968;5.974;2023-07-16T14:52:52;22.30;99.90
52107;DHT22;38105;52.968;5.974;2023-07-16T14:55:18;22.40;99.90
52107;DHT22;38105;52.968;5.974;2023-07-16T14:57:44;22.40;99.90
52107;DHT22;38105;52.968;5.974;2023-07-16T15:00:10;22.40;99.90
52107;DHT22;38105;52.968;5.974;2023-07-16T15:02:37;22.30;99.90
52107;DHT22;38105;52.968;5.974;2023-07-16T15:05:04;22.30;99.90
52107;DHT22;38105;52.968;5.974;2023-07-16T15:07:33;22.20;99.90
52107;DHT22;38105;52.968;5.974;2023-07-16T15:10:00;22.20;99.90
52107;DHT22;38105;52.968;5.974;2023-07-16T15:12:28;22.20;99.90
52107;DHT22;38105;52.968;5.974;2023-07-16T15:14:54;22.20;99.90
52107;DHT22;38105;52.968;5.974;2023-07-16T15:17:20;22.10;99.90
52107;DHT22;38105;52.968;5.974;2023-07-16T15:19:48;22.10;99.90
52107;DHT22;38105;52.968;5.974;2023-07-16T15:22:14;22.10;99.90
52107;DHT22;38105;52.968;5.974;2023-07-16T15:24:43;22.10;99.90
52107;DHT22;38105;52.968;5.974;2023-07-16T15:27:09;22.00;99.90
52107;DHT22;38105;52.968;5.974;2023-07-16T15:29:35;21.90;99.90